Time;durP1;ratioP1;P1;durP2;ratioP2;P2;SDS_P1;SDS_P2;PMS_P1;PMS_P2;Temp;Humidity;BMP_temperature;BMP_pressure;BME280_temperature;BME280_humidity;BME280_pressure;Samples;Min_cycle;Max_cycle;Signal;HPM_P1;HPM_P2
2023/09/25 00:00:30;;;;;;;;;1.33;1.33;;;;;;;;5083138;27;45449;-49
2023/09/25 00:02:55;;;;;;;;;6.00;3.67;;;;;;;;5080205;27;45552;-50
2023/09/25 00:05:20;;;;;;;;;2.00;2.00;;;;;;;;5064882;27;45413;-48
2023/09/25 00:07:45;;;;;;;;;4.33;4.33;;;;;;;;5081093;27;45600;-50
2023/09/25 00:10:11;;;;;;;;;7.00;4.67;;;;;;;;5082806;27;45494;-51
2023/09/25 00:12:36;;;;;;;;;3.00;3.00;;;;;;;;5082218;28;45378;-48
2023/09/25 00:15:01;;;;;;;;;3.00;3.00;;;;;;;;5082133;28;45508;-47
2023/09/25 00:17:27;;;;;;;;;4.33;3.33;;;;;;;;5081631;28;45430;-49
2023/09/25 00:19:52;;;;;;;;;3.00;3.00;;;;;;;;5084785;27;46228;-50
2023/09/25 00:22:17;;;;;;;;;4.00;3.00;;;;;;;;5084333;27;45211;-49
2023/09/25 00:24:42;;;;;;;;;4.33;4.33;;;;;;;;5085506;27;45432;-48
2023/09/25 00:27:11;;;;;;;;;3.50;3.50;;;;;;;;5085659;28;45453;-50
2023/09/25 00:29:37;;;;;;;;;4.00;3.00;;;;;;;;5081150;27;46485;-50
2023/09/25 00:32:02;;;;;;;;;3.67;3.00;;;;;;;;5081502;28;45388;-50
2023/09/25 00:34:28;;;;;;;;;4.00;3.00;;;;;;;;5083900;27;45543;-49
2023/09/25 00:36:53;;;;;;;;;3.00;3.00;;;;;;;;5097474;27;45550;-49
2023/09/25 00:39:18;;;;;;;;;3.00;3.00;;;;;;;;5080668;27;46295;-50
2023/09/25 00:41:43;;;;;;;;;4.33;4.00;;;;;;;;5081188;27;45198;-48
2023/09/25 00:44:08;;;;;;;;;5.00;3.33;;;;;;;;5074207;27;45446;-49
2023/09/25 00:46:34;;;;;;;;;3.33;3.33;;;;;;;;5081911;27;45440;-51
2023/09/25 00:48:59;;;;;;;;;3.00;3.00;;;;;;;;5083992;27;45534;-48
2023/09/25 00:51:25;;;;;;;;;2.33;2.33;;;;;;;;5082441;27;45446;-52
2023/09/25 00:53:50;;;;;;;;;2.00;2.00;;;;;;;;5085865;27;45430;-48
2023/09/25 00:56:16;;;;;;;;;4.67;3.67;;;;;;;;5093314;27;45522;-49
2023/09/25 00:58:41;;;;;;;;;2.00;2.00;;;;;;;;5097107;27;45953;-52
2023/09/25 01:01:10;;;;;;;;;2.00;2.00;;;;;;;;5084243;27;45284;-52
2023/09/25 01:03:35;;;;;;;;;3.00;3.00;;;;;;;;5085689;27;45432;-51
2023/09/25 01:06:01;;;;;;;;;4.33;4.00;;;;;;;;5086405;27;45507;-51
2023/09/25 01:08:27;;;;;;;;;6.00;3.67;;;;;;;;5081947;27;46115;-53
2023/09/25 01:10:52;;;;;;;;;5.00;3.33;;;;;;;;5079769;27;45454;-48
2023/09/25 01:13:17;;;;;;;;;1.67;1.67;;;;;;;;5081295;27;45413;-48
2023/09/25 01:15:42;;;;;;;;;3.00;3.00;;;;;;;;5078844;27;45633;-48
2023/09/25 01:18:08;;;;;;;;;4.67;3.00;;;;;;;;5080262;27;45559;-48
2023/09/25 01:20:33;;;;;;;;;4.33;3.67;;;;;;;;5079614;27;45666;-50
2023/09/25 01:22:58;;;;;;;;;2.67;2.67;;;;;;;;5080615;27;45524;-50
2023/09/25 01:25:24;;;;;;;;;2.00;2.00;;;;;;;;5079887;27;45516;-52
2023/09/25 01:27:49;;;;;;;;;3.00;3.00;;;;;;;;5078676;27;46922;-51
2023/09/25 01:30:15;;;;;;;;;2.00;2.00;;;;;;;;5073928;27;45470;-50
2023/09/25 01:32:42;;;;;;;;;2.33;2.33;;;;;;;;5082476;27;45448;-51
2023/09/25 01:35:18;;;;;;;;;2.33;2.33;;;;;;;;5080010;27;45599;-52
2023/09/25 01:37:43;;;;;;;;;3.67;3.67;;;;;;;;5079269;27;46988;-50
2023/09/25 01:40:12;;;;;;;;;2.00;2.00;;;;;;;;5083838;27;45596;-51
2023/09/25 01:42:37;;;;;;;;;2.33;2.33;;;;;;;;5079494;27;45427;-52
2023/09/25 01:45:03;;;;;;;;;3.00;3.00;;;;;;;;5079242;27;45403;-50
2023/09/25 01:47:28;;;;;;;;;3.00;3.00;;;;;;;;5077878;27;46141;-53
2023/09/25 01:49:53;;;;;;;;;4.00;3.00;;;;;;;;5075489;27;45524;-51
2023/09/25 01:52:19;;;;;;;;;2.00;2.00;;;;;;;;5080866;27;45552;-53
2023/09/25 01:54:44;;;;;;;;;2.00;2.00;;;;;;;;5075626;27;45345;-53
2023/09/25 01:57:09;;;;;;;;;3.00;3.00;;;;;;;;5083618;27;45956;-53
2023/09/25 01:59:35;;;;;;;;;2.00;2.00;;;;;;;;5084811;27;45216;-52
2023/09/25 02:02:00;;;;;;;;;3.33;2.67;;;;;;;;5062484;27;45252;-53
2023/09/25 02:04:25;;;;;;;;;2.00;2.00;;;;;;;;5078754;27;45370;-50
2023/09/25 02:06:50;;;;;;;;;3.00;2.67;;;;;;;;5076098;27;46905;-50
2023/09/25 02:09:15;;;;;;;;;2.00;0.33;;;;;;;;5084433;27;45651;-51
2023/09/25 02:11:40;;;;;;;;;2.00;2.00;;;;;;;;5082734;27;46072;-52
2023/09/25 02:14:06;;;;;;;;;4.00;3.00;;;;;;;;5080700;27;45282;-51
2023/09/25 02:16:31;;;;;;;;;5.00;3.00;;;;;;;;5080908;27;45378;-50
2023/09/25 02:18:56;;;;;;;;;3.00;3.00;;;;;;;;5079205;27;45517;-53
2023/09/25 02:21:22;;;;;;;;;4.33;4.00;;;;;;;;5081921;27;45312;-50
2023/09/25 02:23:47;;;;;;;;;4.00;4.00;;;;;;;;5065835;27;45356;-52
2023/09/25 02:26:12;;;;;;;;;3.67;3.00;;;;;;;;5080217;27;46122;-54
2023/09/25 02:28:38;;;;;;;;;4.00;4.00;;;;;;;;5061526;28;45529;-50
2023/09/25 02:31:03;;;;;;;;;2.00;2.00;;;;;;;;5078778;27;45259;-52
2023/09/25 02:33:28;;;;;;;;;3.00;2.00;;;;;;;;5079087;27;45614;-50
2023/09/25 02:36:02;;;;;;;;;1.67;1.67;;;;;;;;5082709;27;45864;-50
2023/09/25 02:38:27;;;;;;;;;2.67;2.67;;;;;;;;5079452;27;45331;-50
2023/09/25 02:40:52;;;;;;;;;3.33;3.00;;;;;;;;5079901;27;45586;-52
2023/09/25 02:43:17;;;;;;;;;4.00;4.00;;;;;;;;5081880;27;46544;-53
2023/09/25 02:45:44;;;;;;;;;3.67;3.67;;;;;;;;5061314;27;46153;-53
2023/09/25 02:48:09;;;;;;;;;7.00;3.00;;;;;;;;5081926;27;45702;-50
2023/09/25 02:50:35;;;;;;;;;5.00;5.00;;;;;;;;5080009;27;45575;-53
2023/09/25 02:53:00;;;;;;;;;4.33;4.00;;;;;;;;5082387;27;45490;-52
2023/09/25 02:55:25;;;;;;;;;4.00;4.00;;;;;;;;5087844;27;46281;-52
2023/09/25 02:57:50;;;;;;;;;3.33;2.33;;;;;;;;5079271;27;45582;-48
2023/09/25 03:00:16;;;;;;;;;5.00;4.00;;;;;;;;5078713;27;45427;-52
2023/09/25 03:02:42;;;;;;;;;3.00;3.00;;;;;;;;5083759;27;45257;-51
2023/09/25 03:05:07;;;;;;;;;2.67;1.00;;;;;;;;5083769;27;45361;-48
2023/09/25 03:07:33;;;;;;;;;3.00;3.00;;;;;;;;5088046;27;45345;-50
2023/09/25 03:09:58;;;;;;;;;4.00;3.00;;;;;;;;5085261;27;45313;-47
2023/09/25 03:12:23;;;;;;;;;4.33;3.00;;;;;;;;5084148;27;45485;-51
2023/09/25 03:14:48;;;;;;;;;4.00;4.00;;;;;;;;5085908;27;46322;-49
2023/09/25 03:17:14;;;;;;;;;5.00;3.67;;;;;;;;5073923;27;45334;-51
2023/09/25 03:19:39;;;;;;;;;2.00;2.00;;;;;;;;5082692;27;45405;-49
2023/09/25 03:22:05;;;;;;;;;6.00;4.00;;;;;;;;5081961;27;45207;-47
2023/09/25 03:24:30;;;;;;;;;3.67;3.00;;;;;;;;5081961;27;47736;-53
2023/09/25 03:26:56;;;;;;;;;2.33;2.33;;;;;;;;5086253;27;45495;-49
2023/09/25 03:29:21;;;;;;;;;3.67;3.67;;;;;;;;5082495;27;45548;-50
2023/09/25 03:31:47;;;;;;;;;5.67;2.67;;;;;;;;5067638;27;45486;-49
2023/09/25 03:34:12;;;;;;;;;3.00;3.00;;;;;;;;5076374;27;46114;-52
2023/09/25 03:36:38;;;;;;;;;5.00;3.33;;;;;;;;5087439;27;45588;-51
2023/09/25 03:39:04;;;;;;;;;7.33;4.00;;;;;;;;5072102;27;45214;-51
2023/09/25 03:41:29;;;;;;;;;5.67;2.67;;;;;;;;5086393;27;45610;-50
2023/09/25 03:43:54;;;;;;;;;3.00;3.00;;;;;;;;5078209;27;45613;-52
2023/09/25 03:46:19;;;;;;;;;3.33;3.33;;;;;;;;5088937;27;45713;-52
2023/09/25 03:48:45;;;;;;;;;3.67;3.00;;;;;;;;5076047;28;45586;-49
2023/09/25 03:51:11;;;;;;;;;5.33;5.33;;;;;;;;5084166;27;45587;-48
2023/09/25 03:53:36;;;;;;;;;4.00;4.00;;;;;;;;5081542;27;45351;-49
2023/09/25 03:56:01;;;;;;;;;3.00;3.00;;;;;;;;5082622;27;45499;-50
2023/09/25 03:58:26;;;;;;;;;4.00;4.00;;;;;;;;5075373;27;46471;-48
2023/09/25 04:00:52;;;;;;;;;7.33;6.00;;;;;;;;5076359;27;45457;-51
2023/09/25 04:03:18;;;;;;;;;3.67;3.00;;;;;;;;5076209;27;46067;-50
2023/09/25 04:05:43;;;;;;;;;4.00;2.67;;;;;;;;5075623;27;45504;-50
2023/09/25 04:08:08;;;;;;;;;4.33;3.67;;;;;;;;5077037;27;45522;-48
2023/09/25 04:10:34;;;;;;;;;5.00;4.00;;;;;;;;5074563;27;45713;-50
2023/09/25 04:13:00;;;;;;;;;3.00;3.00;;;;;;;;5075106;27;46958;-50
2023/09/25 04:15:26;;;;;;;;;5.33;2.67;;;;;;;;5072269;27;45601;-51
2023/09/25 04:17:52;;;;;;;;;5.33;4.33;;;;;;;;5078694;27;45117;-51
2023/09/25 04:20:17;;;;;;;;;2.00;2.00;;;;;;;;5074337;27;45547;-52
2023/09/25 04:22:44;;;;;;;;;2.00;2.00;;;;;;;;5075700;27;45208;-47
2023/09/25 04:25:18;;;;;;;;;5.00;5.00;;;;;;;;5078198;27;45496;-52
2023/09/25 04:27:44;;;;;;;;;5.00;3.00;;;;;;;;5073244;27;45354;-48
2023/09/25 04:30:12;;;;;;;;;4.00;3.33;;;;;;;;5071201;27;45752;-48
2023/09/25 04:32:37;;;;;;;;;3.00;3.00;;;;;;;;5073774;27;46101;-48
2023/09/25 04:35:04;;;;;;;;;4.00;4.00;;;;;;;;5077790;27;45776;-50
2023/09/25 04:37:30;;;;;;;;;4.00;4.00;;;;;;;;5074915;27;45616;-49
2023/09/25 04:39:55;;;;;;;;;5.33;4.00;;;;;;;;5076535;27;45406;-50
2023/09/25 04:42:20;;;;;;;;;3.67;3.67;;;;;;;;5075579;27;46197;-51
2023/09/25 04:44:45;;;;;;;;;2.00;2.00;;;;;;;;5079040;27;45198;-48
2023/09/25 04:47:11;;;;;;;;;6.00;4.00;;;;;;;;5081648;27;45194;-47
2023/09/25 04:49:36;;;;;;;;;3.00;3.00;;;;;;;;5080363;27;45520;-52
2023/09/25 04:52:02;;;;;;;;;3.67;3.67;;;;;;;;5079591;28;45219;-50
2023/09/25 04:54:27;;;;;;;;;5.67;4.00;;;;;;;;5085974;27;45234;-50
2023/09/25 04:56:52;;;;;;;;;3.67;3.00;;;;;;;;5084943;27;45723;-49
2023/09/25 04:59:18;;;;;;;;;5.00;3.00;;;;;;;;5077352;28;46912;-47
2023/09/25 05:01:43;;;;;;;;;3.00;2.00;;;;;;;;5079703;27;46290;-49
2023/09/25 05:04:09;;;;;;;;;6.00;4.33;;;;;;;;5080155;27;45344;-51
2023/09/25 05:06:34;;;;;;;;;5.00;3.00;;;;;;;;5081412;27;45354;-47
2023/09/25 05:08:59;;;;;;;;;6.00;4.00;;;;;;;;5081975;27;45507;-50
2023/09/25 05:11:24;;;;;;;;;3.67;3.33;;;;;;;;5069200;28;45228;-50
2023/09/25 05:13:50;;;;;;;;;4.00;4.00;;;;;;;;5081299;27;45272;-52
2023/09/25 05:16:15;;;;;;;;;5.00;5.00;;;;;;;;5076210;27;45316;-52
2023/09/25 05:18:40;;;;;;;;;6.33;5.00;;;;;;;;5074160;27;45927;-53
2023/09/25 05:21:06;;;;;;;;;3.67;3.67;;;;;;;;5075029;27;45435;-51
2023/09/25 05:23:31;;;;;;;;;5.33;5.33;;;;;;;;5070524;27;45331;-53
2023/09/25 05:25:57;;;;;;;;;8.33;6.00;;;;;;;;5076635;27;45460;-50
2023/09/25 05:28:22;;;;;;;;;5.67;5.67;;;;;;;;5075813;27;45405;-50
2023/09/25 05:30:48;;;;;;;;;4.67;4.67;;;;;;;;5072440;27;46112;-49
2023/09/25 05:33:14;;;;;;;;;4.00;4.00;;;;;;;;5075400;27;45401;-51
2023/09/25 05:35:39;;;;;;;;;6.00;4.00;;;;;;;;5078582;27;45555;-48
2023/09/25 05:38:04;;;;;;;;;4.00;4.00;;;;;;;;5079926;28;45379;-48
2023/09/25 05:40:30;;;;;;;;;6.00;6.00;;;;;;;;5079385;27;46084;-49
2023/09/25 05:42:55;;;;;;;;;4.33;4.33;;;;;;;;5075493;27;45582;-50
2023/09/25 05:45:20;;;;;;;;;7.33;6.33;;;;;;;;5076406;27;45457;-51
2023/09/25 05:47:45;;;;;;;;;5.33;5.00;;;;;;;;5078141;27;45665;-47
2023/09/25 05:50:11;;;;;;;;;6.00;6.00;;;;;;;;5076838;27;46184;-49
2023/09/25 05:52:37;;;;;;;;;4.00;4.00;;;;;;;;5078481;27;45465;-50
2023/09/25 05:55:04;;;;;;;;;5.00;3.33;;;;;;;;5075121;27;45203;-52
2023/09/25 05:57:29;;;;;;;;;6.00;5.00;;;;;;;;5062435;28;46063;-51
2023/09/25 05:59:55;;;;;;;;;6.33;4.67;;;;;;;;5077538;28;46820;-51
2023/09/25 06:02:20;;;;;;;;;3.33;3.00;;;;;;;;5079253;27;45469;-53
2023/09/25 06:04:46;;;;;;;;;5.00;5.00;;;;;;;;5077493;28;45439;-50
2023/09/25 06:07:11;;;;;;;;;5.00;5.00;;;;;;;;5074706;27;45495;-50
2023/09/25 06:09:36;;;;;;;;;6.67;6.00;;;;;;;;5073655;28;45397;-49
2023/09/25 06:12:02;;;;;;;;;5.67;5.33;;;;;;;;5077066;27;45534;-51
2023/09/25 06:14:30;;;;;;;;;5.67;5.67;;;;;;;;5077391;28;45321;-51
2023/09/25 06:16:57;;;;;;;;;6.00;5.00;;;;;;;;5076267;27;45379;-52
2023/09/25 06:19:22;;;;;;;;;8.00;8.00;;;;;;;;5078322;28;45999;-51
2023/09/25 06:21:47;;;;;;;;;8.33;6.00;;;;;;;;5076163;28;45809;-48
2023/09/25 06:24:13;;;;;;;;;8.00;7.33;;;;;;;;5076472;27;45453;-50
2023/09/25 06:26:39;;;;;;;;;6.00;6.00;;;;;;;;5075519;28;45531;-65
2023/09/25 06:29:05;;;;;;;;;9.33;6.00;;;;;;;;5072396;27;46333;-63
2023/09/25 06:31:30;;;;;;;;;6.67;6.67;;;;;;;;5077637;27;45315;-63
2023/09/25 06:33:55;;;;;;;;;6.00;6.00;;;;;;;;5077897;27;45286;-63
2023/09/25 06:36:20;;;;;;;;;6.33;4.33;;;;;;;;5076110;27;45440;-63
2023/09/25 06:38:46;;;;;;;;;7.00;5.67;;;;;;;;5070600;28;46324;-63
2023/09/25 06:41:11;;;;;;;;;6.67;6.00;;;;;;;;5075916;27;45597;-63
2023/09/25 06:43:37;;;;;;;;;5.00;4.67;;;;;;;;5077190;28;45358;-67
2023/09/25 06:46:02;;;;;;;;;8.67;6.00;;;;;;;;5073771;28;45428;-63
2023/09/25 06:48:27;;;;;;;;;5.00;4.00;;;;;;;;5076603;27;46144;-62
2023/09/25 06:50:52;;;;;;;;;5.00;5.00;;;;;;;;5072271;28;45346;-63
2023/09/25 06:53:17;;;;;;;;;5.00;5.00;;;;;;;;5075929;27;45626;-62
2023/09/25 06:55:44;;;;;;;;;4.67;4.00;;;;;;;;5079471;27;45568;-63
2023/09/25 06:58:10;;;;;;;;;2.00;2.00;;;;;;;;5080925;27;45456;-62
2023/09/25 07:00:35;;;;;;;;;5.00;5.00;;;;;;;;5071763;27;45438;-62
2023/09/25 07:03:01;;;;;;;;;12.67;9.00;;;;;;;;5070532;27;45782;-62
2023/09/25 07:05:28;;;;;;;;;5.00;4.00;;;;;;;;5073120;27;45283;-63
2023/09/25 07:07:53;;;;;;;;;6.33;5.00;;;;;;;;5066467;27;46461;-63
2023/09/25 07:10:18;;;;;;;;;5.00;4.00;;;;;;;;5068417;27;45557;-65
2023/09/25 07:12:44;;;;;;;;;6.00;4.67;;;;;;;;5068925;27;45506;-61
2023/09/25 07:15:09;;;;;;;;;3.67;3.67;;;;;;;;5069598;27;45847;-61
2023/09/25 07:17:34;;;;;;;;;8.00;6.00;;;;;;;;5068110;27;46010;-58
2023/09/25 07:20:00;;;;;;;;;6.00;5.00;;;;;;;;5069187;27;45593;-58
2023/09/25 07:22:27;;;;;;;;;3.67;3.00;;;;;;;;5068872;28;46058;-58
2023/09/25 07:24:53;;;;;;;;;5.33;5.00;;;;;;;;5065737;27;45497;-58
2023/09/25 07:27:18;;;;;;;;;7.00;5.33;;;;;;;;5068168;27;45861;-58
2023/09/25 07:29:44;;;;;;;;;5.33;4.67;;;;;;;;5068151;27;45550;-59
2023/09/25 07:32:09;;;;;;;;;5.00;4.00;;;;;;;;5070633;27;46851;-58
2023/09/25 07:34:34;;;;;;;;;4.33;4.33;;;;;;;;5072694;27;45192;-59
2023/09/25 07:37:00;;;;;;;;;6.00;4.67;;;;;;;;5071337;27;46725;-59
2023/09/25 07:39:26;;;;;;;;;4.00;2.33;;;;;;;;5068731;27;45350;-59
2023/09/25 07:41:52;;;;;;;;;7.00;5.33;;;;;;;;5071045;27;45651;-59
2023/09/25 07:44:17;;;;;;;;;5.33;3.00;;;;;;;;5070924;27;45978;-57
2023/09/25 07:46:47;;;;;;;;;3.00;3.00;;;;;;;;5071137;27;47397;-57
2023/09/25 07:49:13;;;;;;;;;4.00;4.00;;;;;;;;5073715;27;45469;-57
2023/09/25 07:51:38;;;;;;;;;5.00;4.33;;;;;;;;5076121;27;45449;-57
2023/09/25 07:54:04;;;;;;;;;5.00;5.00;;;;;;;;5065391;27;45488;-57
2023/09/25 07:56:30;;;;;;;;;6.33;6.00;;;;;;;;5069835;27;46087;-57
2023/09/25 07:58:55;;;;;;;;;9.00;5.67;;;;;;;;5076821;27;45877;-57
2023/09/25 08:01:22;;;;;;;;;5.00;3.67;;;;;;;;5074188;27;45236;-58
2023/09/25 08:03:47;;;;;;;;;4.33;3.00;;;;;;;;5070556;27;45465;-58
2023/09/25 08:06:12;;;;;;;;;6.00;6.00;;;;;;;;5076340;28;45409;-58
2023/09/25 08:08:37;;;;;;;;;4.33;4.33;;;;;;;;5079587;27;45762;-57
2023/09/25 08:11:03;;;;;;;;;8.67;4.33;;;;;;;;5079625;27;45454;-58
2023/09/25 08:13:29;;;;;;;;;5.00;3.00;;;;;;;;5080504;27;45449;-58
2023/09/25 08:15:55;;;;;;;;;6.67;5.00;;;;;;;;5077356;27;45855;-57
2023/09/25 08:18:20;;;;;;;;;5.67;4.00;;;;;;;;5071644;27;46478;-58
2023/09/25 08:20:45;;;;;;;;;8.67;5.00;;;;;;;;5069196;27;45596;-57
2023/09/25 08:23:11;;;;;;;;;6.00;5.00;;;;;;;;5068985;27;45478;-57
2023/09/25 08:25:36;;;;;;;;;3.67;3.33;;;;;;;;5067991;27;46254;-57
2023/09/25 08:28:01;;;;;;;;;4.25;4.25;;;;;;;;5067719;27;46603;-57
2023/09/25 08:30:26;;;;;;;;;3.00;3.00;;;;;;;;5068489;27;45569;-57
2023/09/25 08:32:53;;;;;;;;;4.00;3.00;;;;;;;;5063665;27;45837;-57
2023/09/25 08:35:19;;;;;;;;;4.33;4.33;;;;;;;;5076625;27;46338;-57
2023/09/25 08:37:44;;;;;;;;;3.00;3.00;;;;;;;;5073296;27;45335;-57
2023/09/25 08:40:09;;;;;;;;;7.00;4.00;;;;;;;;5077881;27;45420;-56
2023/09/25 08:42:35;;;;;;;;;6.00;4.67;;;;;;;;5073867;27;45414;-56
2023/09/25 08:45:01;;;;;;;;;3.33;3.00;;;;;;;;5066547;27;47591;-57
2023/09/25 08:47:27;;;;;;;;;5.33;5.00;;;;;;;;5060036;27;46104;-58
2023/09/25 08:49:52;;;;;;;;;6.67;4.33;;;;;;;;5053166;27;45616;-58
2023/09/25 08:52:19;;;;;;;;;6.00;3.33;;;;;;;;5058917;27;45633;-58
2023/09/25 08:54:44;;;;;;;;;3.33;3.33;;;;;;;;5050284;27;45428;-57
2023/09/25 08:57:10;;;;;;;;;7.00;5.00;;;;;;;;5052103;27;45914;-58
2023/09/25 08:59:36;;;;;;;;;4.33;4.33;;;;;;;;5052896;27;46129;-58
2023/09/25 09:02:02;;;;;;;;;4.00;4.00;;;;;;;;5049904;27;48974;-58
2023/09/25 09:04:28;;;;;;;;;5.00;4.00;;;;;;;;5050104;27;46604;-58
2023/09/25 09:06:53;;;;;;;;;4.33;4.33;;;;;;;;5056052;27;45544;-59
2023/09/25 09:09:18;;;;;;;;;14.33;9.00;;;;;;;;5056052;27;45498;-58
2023/09/25 09:11:53;;;;;;;;;5.00;5.00;;;;;;;;5054601;27;45544;-58
2023/09/25 09:14:37;;;;;;;;;4.67;4.33;;;;;;;;5054527;27;46283;-58
2023/09/25 09:17:04;;;;;;;;;5.00;4.00;;;;;;;;5053083;27;45896;-58
2023/09/25 09:19:33;;;;;;;;;5.00;5.00;;;;;;;;5051158;27;46063;-58
2023/09/25 09:22:01;;;;;;;;;3.00;3.00;;;;;;;;5053953;27;45896;-59
2023/09/25 09:24:28;;;;;;;;;6.00;5.00;;;;;;;;5052631;27;47118;-59
2023/09/25 09:26:53;;;;;;;;;5.25;4.00;;;;;;;;5052425;27;45721;-59
2023/09/25 09:29:19;;;;;;;;;5.75;4.75;;;;;;;;5051570;27;45413;-59
2023/09/25 09:31:44;;;;;;;;;4.25;4.25;;;;;;;;5053441;27;47398;-59
2023/09/25 09:34:09;;;;;;;;;5.00;5.00;;;;;;;;5052156;27;47747;-59
2023/09/25 09:36:35;;;;;;;;;3.00;3.00;;;;;;;;5051457;27;46216;-59
2023/09/25 09:39:03;;;;;;;;;3.50;3.50;;;;;;;;5052695;27;46026;-59
2023/09/25 09:41:29;;;;;;;;;3.75;3.75;;;;;;;;5052200;27;45643;-59
2023/09/25 09:43:54;;;;;;;;;4.00;3.25;;;;;;;;5059791;27;45362;-59
2023/09/25 09:46:22;;;;;;;;;3.50;3.50;;;;;;;;5080667;27;45613;-59
2023/09/25 09:48:49;;;;;;;;;4.00;4.00;;;;;;;;5081324;27;45326;-58
2023/09/25 09:51:15;;;;;;;;;4.50;3.00;;;;;;;;5080122;27;45565;-59
2023/09/25 09:53:41;;;;;;;;;6.00;3.00;;;;;;;;5070663;27;45196;-58
2023/09/25 09:56:06;;;;;;;;;5.75;3.00;;;;;;;;5082824;27;45486;-59
2023/09/25 09:58:31;;;;;;;;;3.25;3.00;;;;;;;;5084014;27;45596;-59
2023/09/25 10:00:57;;;;;;;;;4.00;4.00;;;;;;;;5093743;27;45227;-59
2023/09/25 10:03:23;;;;;;;;;7.00;3.00;;;;;;;;5091616;27;46293;-59
2023/09/25 10:05:49;;;;;;;;;3.00;3.00;;;;;;;;5088419;27;45226;-59
2023/09/25 10:08:15;;;;;;;;;3.50;3.50;;;;;;;;5093709;27;45444;-59
2023/09/25 10:10:41;;;;;;;;;4.50;4.00;;;;;;;;5093983;27;45352;-59
2023/09/25 10:13:13;;;;;;;;;5.50;4.00;;;;;;;;5093838;27;46281;-59
2023/09/25 10:15:39;;;;;;;;;11.00;5.00;;;;;;;;5093580;27;45289;-59
2023/09/25 10:18:06;;;;;;;;;4.25;3.50;;;;;;;;5092522;27;45309;-59
2023/09/25 10:20:40;;;;;;;;;5.50;3.50;;;;;;;;5089494;27;45506;-59
2023/09/25 10:23:05;;;;;;;;;4.75;3.00;;;;;;;;5077476;27;46360;-59
2023/09/25 10:25:31;;;;;;;;;5.25;3.75;;;;;;;;5092013;27;45294;-59
2023/09/25 10:27:57;;;;;;;;;3.25;3.25;;;;;;;;5078012;27;45487;-59
2023/09/25 10:30:22;;;;;;;;;7.00;4.00;;;;;;;;5086758;27;45397;-57
2023/09/25 10:32:51;;;;;;;;;4.75;4.75;;;;;;;;5094643;27;45543;-58
2023/09/25 10:35:55;;;;;;;;;3.50;3.50;;;;;;;;5085884;27;45455;-58
2023/09/25 10:38:28;;;;;;;;;4.75;2.75;;;;;;;;5026408;28;45354;-58
2023/09/25 10:40:54;;;;;;;;;3.50;3.00;;;;;;;;5012634;28;45338;-57
2023/09/25 10:43:21;;;;;;;;;5.00;5.00;;;;;;;;5044535;27;46520;-57
2023/09/25 10:45:46;;;;;;;;;3.75;3.75;;;;;;;;5097068;27;45495;-58
2023/09/25 10:48:12;;;;;;;;;4.50;4.50;;;;;;;;5094277;27;45306;-58
2023/09/25 10:50:37;;;;;;;;;3.50;3.50;;;;;;;;5098611;27;45357;-58
2023/09/25 10:53:04;;;;;;;;;9.00;5.25;;;;;;;;5094624;27;46175;-58
2023/09/25 10:55:29;;;;;;;;;5.25;4.50;;;;;;;;5096806;27;45341;-59
2023/09/25 10:57:55;;;;;;;;;2.75;2.75;;;;;;;;5083838;27;45423;-59
2023/09/25 11:00:22;;;;;;;;;5.50;2.75;;;;;;;;5094828;27;45449;-58
2023/09/25 11:02:47;;;;;;;;;5.00;5.00;;;;;;;;5082089;27;46645;-58
2023/09/25 11:05:12;;;;;;;;;5.25;3.50;;;;;;;;5075168;27;45353;-58
2023/09/25 11:07:38;;;;;;;;;2.75;2.75;;;;;;;;5091562;27;45439;-58
2023/09/25 11:10:07;;;;;;;;;4.00;4.00;;;;;;;;5094790;27;45309;-59
2023/09/25 11:12:33;;;;;;;;;2.50;2.50;;;;;;;;5089416;27;46298;-58
2023/09/25 11:14:58;;;;;;;;;3.25;3.25;;;;;;;;5095108;27;45413;-58
2023/09/25 11:17:24;;;;;;;;;4.25;4.00;;;;;;;;5085482;27;45347;-58
2023/09/25 11:19:51;;;;;;;;;3.25;2.00;;;;;;;;5061557;27;46336;-58
2023/09/25 11:22:18;;;;;;;;;4.50;4.50;;;;;;;;5085474;27;45456;-58
2023/09/25 11:24:43;;;;;;;;;5.25;3.50;;;;;;;;5095209;27;45361;-58
2023/09/25 11:27:09;;;;;;;;;3.00;3.00;;;;;;;;5087233;27;45523;-58
2023/09/25 11:29:37;;;;;;;;;2.75;2.75;;;;;;;;5095368;27;45387;-58
2023/09/25 11:32:02;;;;;;;;;4.25;2.00;;;;;;;;5086294;27;45729;-58
2023/09/25 11:34:28;;;;;;;;;4.50;3.00;;;;;;;;5088464;27;45507;-58
2023/09/25 11:36:54;;;;;;;;;0.00;0.00;;;;;;;;5070832;27;45335;-59
2023/09/25 11:39:19;;;;;;;;;4.00;4.00;;;;;;;;5074103;27;45489;-58
2023/09/25 11:41:44;;;;;;;;;3.75;3.00;;;;;;;;5066927;27;46743;-58
2023/09/25 11:44:09;;;;;;;;;0.00;0.00;;;;;;;;5071938;27;45614;-58
2023/09/25 11:46:35;;;;;;;;;3.00;3.00;;;;;;;;5065525;27;45353;-58
2023/09/25 11:49:00;;;;;;;;;3.75;3.75;;;;;;;;5065102;28;45521;-59
2023/09/25 11:51:26;;;;;;;;;3.50;2.25;;;;;;;;5073635;27;46658;-59
2023/09/25 11:53:52;;;;;;;;;5.00;3.50;;;;;;;;5076736;27;45492;-59
2023/09/25 11:56:17;;;;;;;;;2.75;2.75;;;;;;;;5076697;27;45426;-59
2023/09/25 11:58:42;;;;;;;;;3.50;3.50;;;;;;;;5077556;27;45581;-59
2023/09/25 12:01:08;;;;;;;;;4.00;4.00;;;;;;;;5078882;28;45394;-59
2023/09/25 12:03:38;;;;;;;;;3.25;3.25;;;;;;;;5067415;28;45359;-59
2023/09/25 12:06:05;;;;;;;;;4.00;4.00;;;;;;;;5067339;28;45383;-59
2023/09/25 12:08:30;;;;;;;;;5.25;3.75;;;;;;;;5068738;28;45381;-59
2023/09/25 12:10:56;;;;;;;;;4.50;2.50;;;;;;;;5069044;28;46194;-59
2023/09/25 12:13:22;;;;;;;;;3.00;3.00;;;;;;;;5062352;27;45545;-58
2023/09/25 12:15:47;;;;;;;;;4.00;4.00;;;;;;;;5070206;27;45405;-58
2023/09/25 12:18:13;;;;;;;;;3.25;3.00;;;;;;;;5058896;27;45501;-58
2023/09/25 12:20:41;;;;;;;;;4.50;3.00;;;;;;;;5067998;27;46484;-58
2023/09/25 12:23:06;;;;;;;;;3.00;3.00;;;;;;;;5071966;27;45352;-59
2023/09/25 12:25:32;;;;;;;;;5.00;3.75;;;;;;;;5076322;27;45471;-58
2023/09/25 12:27:57;;;;;;;;;4.50;2.00;;;;;;;;5071175;27;45656;-58
2023/09/25 12:30:22;;;;;;;;;4.00;3.75;;;;;;;;5076463;27;45372;-58
2023/09/25 12:32:48;;;;;;;;;2.25;2.25;;;;;;;;5071021;27;45502;-58
2023/09/25 12:35:15;;;;;;;;;2.00;2.00;;;;;;;;5077026;28;45523;-58
2023/09/25 12:37:43;;;;;;;;;5.00;3.00;;;;;;;;5060823;27;45423;-58
2023/09/25 12:40:09;;;;;;;;;3.25;3.25;;;;;;;;5068714;27;46342;-58
2023/09/25 12:42:34;;;;;;;;;3.50;3.50;;;;;;;;5072130;27;45771;-59
2023/09/25 12:45:00;;;;;;;;;2.75;2.75;;;;;;;;5077138;27;45532;-58
2023/09/25 12:47:28;;;;;;;;;4.00;4.00;;;;;;;;5075983;27;45733;-59
2023/09/25 12:49:54;;;;;;;;;6.00;4.00;;;;;;;;5076719;27;45313;-59
2023/09/25 12:52:19;;;;;;;;;5.00;3.75;;;;;;;;5076451;27;45840;-58
2023/09/25 12:54:45;;;;;;;;;3.75;3.50;;;;;;;;5072164;27;45544;-58
2023/09/25 12:57:11;;;;;;;;;4.50;4.00;;;;;;;;5075790;28;45592;-58
2023/09/25 12:59:37;;;;;;;;;3.00;3.00;;;;;;;;5070260;27;46948;-59
2023/09/25 13:02:02;;;;;;;;;7.00;4.75;;;;;;;;5077550;27;45337;-58
2023/09/25 13:04:27;;;;;;;;;3.00;3.00;;;;;;;;5070278;27;45365;-58
2023/09/25 13:06:54;;;;;;;;;3.00;3.00;;;;;;;;5077520;27;45922;-58
2023/09/25 13:09:20;;;;;;;;;2.00;2.00;;;;;;;;5068673;27;47187;-58
2023/09/25 13:11:46;;;;;;;;;5.75;4.00;;;;;;;;5064110;27;45312;-58
2023/09/25 13:14:11;;;;;;;;;3.00;3.00;;;;;;;;5069007;27;45625;-58
2023/09/25 13:16:37;;;;;;;;;4.00;4.00;;;;;;;;5077579;27;45599;-58
2023/09/25 13:19:02;;;;;;;;;4.00;4.00;;;;;;;;5068965;27;46141;-58
2023/09/25 13:21:27;;;;;;;;;6.00;4.00;;;;;;;;5076849;27;45363;-57
2023/09/25 13:23:56;;;;;;;;;3.50;2.50;;;;;;;;5077564;27;45482;-57
2023/09/25 13:26:22;;;;;;;;;4.25;4.25;;;;;;;;5073919;27;45515;-56
2023/09/25 13:28:47;;;;;;;;;5.00;3.25;;;;;;;;5079081;27;46268;-56
2023/09/25 13:31:13;;;;;;;;;3.00;3.00;;;;;;;;5076721;27;45330;-56
2023/09/25 13:33:38;;;;;;;;;4.75;4.50;;;;;;;;5079632;27;45399;-56
2023/09/25 13:36:05;;;;;;;;;3.00;3.00;;;;;;;;5070462;27;45621;-57
2023/09/25 13:38:30;;;;;;;;;2.50;2.50;;;;;;;;5076680;27;47117;-56
2023/09/25 13:40:55;;;;;;;;;3.00;3.00;;;;;;;;5077517;27;45273;-56
2023/09/25 13:43:21;;;;;;;;;2.00;2.00;;;;;;;;5077388;27;45293;-56
2023/09/25 13:45:47;;;;;;;;;4.00;4.00;;;;;;;;5078025;27;45325;-56
2023/09/25 13:48:12;;;;;;;;;3.00;1.50;;;;;;;;5076686;27;46113;-61
2023/09/25 13:50:37;;;;;;;;;4.25;4.25;;;;;;;;5072561;27;45733;-58
2023/09/25 13:53:02;;;;;;;;;4.00;4.00;;;;;;;;5077241;27;45254;-59
2023/09/25 13:55:28;;;;;;;;;2.00;2.00;;;;;;;;5077805;27;45260;-59
2023/09/25 13:57:54;;;;;;;;;3.00;3.00;;;;;;;;5079693;27;45201;-59
2023/09/25 14:00:19;;;;;;;;;4.75;3.00;;;;;;;;5078576;27;45898;-58
2023/09/25 14:02:44;;;;;;;;;2.00;2.00;;;;;;;;5078849;27;45636;-59
2023/09/25 14:05:11;;;;;;;;;2.00;2.00;;;;;;;;5067241;27;45418;-59
2023/09/25 14:07:36;;;;;;;;;4.25;3.00;;;;;;;;5068946;27;46060;-59
2023/09/25 14:10:02;;;;;;;;;2.25;2.25;;;;;;;;5077232;27;45460;-59
2023/09/25 14:12:27;;;;;;;;;2.00;2.00;;;;;;;;5069811;27;45347;-60
2023/09/25 14:14:53;;;;;;;;;4.25;2.25;;;;;;;;5069991;27;45307;-59
2023/09/25 14:17:19;;;;;;;;;2.25;2.25;;;;;;;;5071595;27;46950;-59
2023/09/25 14:19:45;;;;;;;;;2.50;2.50;;;;;;;;5072795;27;45451;-59
2023/09/25 14:22:10;;;;;;;;;3.75;3.25;;;;;;;;5077887;27;45461;-59
2023/09/25 14:24:35;;;;;;;;;2.50;2.00;;;;;;;;5078612;27;45449;-59
2023/09/25 14:27:01;;;;;;;;;2.75;2.00;;;;;;;;5078793;27;46280;-59
2023/09/25 14:29:27;;;;;;;;;3.00;2.00;;;;;;;;5066747;27;45379;-59
2023/09/25 14:31:52;;;;;;;;;2.00;2.00;;;;;;;;5075344;27;45516;-59
2023/09/25 14:34:17;;;;;;;;;3.00;3.00;;;;;;;;5071960;27;45530;-59